Time;durP1;ratioP1;P1;durP2;ratioP2;P2;SDS_P1;SDS_P2;PMS_P1;PMS_P2;Temp;Humidity;BMP_temperature;BMP_pressure;BME280_temperature;BME280_humidity;BME280_pressure;Samples;Min_cycle;Max_cycle;Signal;HPM_P1;HPM_P2
2023/07/28 00:00:51;;;;;;;10.57;6.50;;;;;;;;;;5067870;28;20046;-73
2023/07/28 00:03:17;;;;;;;11.35;6.60;;;;;;;;;;5077043;28;20032;-72
2023/07/28 00:05:43;;;;;;;8.68;6.20;;;;;;;;;;5074550;28;20081;-73
2023/07/28 00:08:09;;;;;;;9.43;6.20;;;;;;;;;;5075943;28;20137;-74
2023/07/28 00:10:41;;;;;;;8.75;5.68;;;;;;;;;;5075596;28;20760;-73
2023/07/28 00:13:06;;;;;;;7.95;6.50;;;;;;;;;;5075629;28;20131;-74
2023/07/28 00:15:32;;;;;;;7.28;6.03;;;;;;;;;;5074430;28;20032;-74
2023/07/28 00:17:59;;;;;;;11.63;6.10;;;;;;;;;;5072716;28;20035;-74
2023/07/28 00:20:26;;;;;;;9.43;6.13;;;;;;;;;;5071716;28;20028;-73
2023/07/28 00:22:52;;;;;;;8.20;5.72;;;;;;;;;;5073734;28;20024;-72
2023/07/28 00:25:18;;;;;;;8.88;5.90;;;;;;;;;;5075844;28;20029;-72
2023/07/28 00:27:44;;;;;;;8.98;6.18;;;;;;;;;;5083666;28;20418;-74
2023/07/28 00:30:11;;;;;;;10.00;5.93;;;;;;;;;;5077679;28;20287;-71
2023/07/28 00:32:37;;;;;;;7.63;5.95;;;;;;;;;;5075435;28;20107;-73
2023/07/28 00:35:03;;;;;;;7.22;5.82;;;;;;;;;;5075542;28;20056;-75
2023/07/28 00:37:29;;;;;;;7.05;5.63;;;;;;;;;;5074267;28;20103;-74
2023/07/28 00:39:55;;;;;;;8.55;6.30;;;;;;;;;;5075424;28;20039;-73
2023/07/28 00:42:21;;;;;;;7.00;5.30;;;;;;;;;;5079477;28;20123;-74
2023/07/28 00:44:47;;;;;;;8.07;6.18;;;;;;;;;;5083788;28;20032;-75
2023/07/28 00:47:13;;;;;;;7.60;6.10;;;;;;;;;;5084033;28;20033;-73
2023/07/28 00:49:40;;;;;;;6.72;5.38;;;;;;;;;;5077237;28;20470;-73
2023/07/28 00:52:08;;;;;;;7.88;6.45;;;;;;;;;;5074554;28;20037;-72
2023/07/28 00:54:34;;;;;;;6.57;5.53;;;;;;;;;;5075014;28;20017;-72
2023/07/28 00:57:00;;;;;;;9.63;5.78;;;;;;;;;;5074936;28;20082;-73
2023/07/28 00:59:27;;;;;;;8.02;5.95;;;;;;;;;;5074796;28;20474;-73
2023/07/28 01:01:53;;;;;;;8.95;6.05;;;;;;;;;;5074239;28;20106;-72
2023/07/28 01:04:19;;;;;;;8.90;6.57;;;;;;;;;;5074722;28;20275;-72
2023/07/28 01:06:45;;;;;;;7.53;5.80;;;;;;;;;;5075101;28;20448;-73
2023/07/28 01:09:16;;;;;;;9.30;6.07;;;;;;;;;;5071512;28;20020;-73
2023/07/28 01:11:55;;;;;;;8.80;6.50;;;;;;;;;;5074656;28;20028;-73
2023/07/28 01:14:21;;;;;;;7.28;5.70;;;;;;;;;;5074188;28;20080;-73
2023/07/28 01:16:47;;;;;;;8.55;5.80;;;;;;;;;;5074852;28;20050;-73
2023/07/28 01:19:13;;;;;;;6.70;5.65;;;;;;;;;;5074217;28;20474;-72
2023/07/28 01:21:43;;;;;;;6.75;5.55;;;;;;;;;;5074580;28;20044;-72
2023/07/28 01:24:18;;;;;;;8.63;6.18;;;;;;;;;;5074225;28;20020;-71
2023/07/28 01:26:45;;;;;;;8.23;5.80;;;;;;;;;;5074213;28;20037;-72
2023/07/28 01:29:12;;;;;;;6.50;5.53;;;;;;;;;;5074168;28;20440;-72
2023/07/28 01:31:40;;;;;;;7.63;5.63;;;;;;;;;;5074493;28;20021;-74
2023/07/28 01:34:06;;;;;;;8.25;5.57;;;;;;;;;;5072764;28;20521;-74
2023/07/28 01:36:32;;;;;;;7.13;5.60;;;;;;;;;;5074601;28;20029;-74
2023/07/28 01:38:57;;;;;;;6.90;6.00;;;;;;;;;;5074100;28;20572;-73
2023/07/28 01:41:24;;;;;;;6.38;5.28;;;;;;;;;;5074378;28;20036;-73
2023/07/28 01:43:50;;;;;;;7.78;5.93;;;;;;;;;;5073367;28;20137;-73
2023/07/28 01:46:15;;;;;;;9.23;6.18;;;;;;;;;;5074414;28;20039;-74
2023/07/28 01:48:42;;;;;;;10.00;6.63;;;;;;;;;;5073801;28;20544;-72
2023/07/28 01:51:07;;;;;;;7.07;6.28;;;;;;;;;;5074157;28;20056;-73
2023/07/28 01:53:33;;;;;;;7.82;6.05;;;;;;;;;;5072381;28;20044;-73
2023/07/28 01:56:00;;;;;;;8.40;5.88;;;;;;;;;;5074150;28;20036;-73
2023/07/28 01:58:27;;;;;;;8.57;5.93;;;;;;;;;;5077740;28;20108;-73
2023/07/28 02:00:53;;;;;;;7.28;6.00;;;;;;;;;;5077074;28;20054;-73
2023/07/28 02:03:19;;;;;;;8.63;6.25;;;;;;;;;;5080405;28;20088;-73
2023/07/28 02:05:45;;;;;;;7.68;5.75;;;;;;;;;;5062837;28;20341;-73
2023/07/28 02:08:11;;;;;;;9.20;6.20;;;;;;;;;;5057369;28;20032;-72
2023/07/28 02:10:36;;;;;;;8.63;6.07;;;;;;;;;;5055360;28;20093;-71
2023/07/28 02:13:02;;;;;;;6.70;5.68;;;;;;;;;;5052030;28;20020;-72
2023/07/28 02:15:28;;;;;;;9.00;5.60;;;;;;;;;;5053780;28;20498;-71
2023/07/28 02:17:54;;;;;;;7.13;6.10;;;;;;;;;;5053561;28;20116;-72
2023/07/28 02:20:20;;;;;;;7.07;5.68;;;;;;;;;;5053776;28;20037;-72
2023/07/28 02:22:46;;;;;;;7.95;5.88;;;;;;;;;;5052944;28;20036;-73
2023/07/28 02:25:13;;;;;;;9.73;7.03;;;;;;;;;;5053553;28;20421;-73
2023/07/28 02:27:39;;;;;;;8.85;7.57;;;;;;;;;;5053352;28;20099;-72
2023/07/28 02:30:05;;;;;;;8.65;6.30;;;;;;;;;;5053413;28;20025;-72
2023/07/28 02:32:31;;;;;;;7.32;6.03;;;;;;;;;;5053076;28;20083;-73
2023/07/28 02:34:57;;;;;;;8.05;6.45;;;;;;;;;;5053377;28;20025;-71
2023/07/28 02:37:23;;;;;;;7.18;5.53;;;;;;;;;;5053239;28;20028;-72
2023/07/28 02:39:49;;;;;;;6.32;5.22;;;;;;;;;;5053232;28;20032;-72
2023/07/28 02:42:15;;;;;;;8.02;6.10;;;;;;;;;;5053209;28;20386;-73
2023/07/28 02:44:42;;;;;;;7.20;5.97;;;;;;;;;;5053133;28;20025;-72
2023/07/28 02:47:08;;;;;;;6.75;5.85;;;;;;;;;;5053054;28;20074;-73
2023/07/28 02:49:34;;;;;;;8.45;5.72;;;;;;;;;;5053142;28;20072;-72
2023/07/28 02:52:00;;;;;;;5.90;5.30;;;;;;;;;;5052749;28;20051;-72
2023/07/28 02:54:26;;;;;;;6.00;4.40;;;;;;;;;;5053205;28;20021;-73
2023/07/28 02:56:52;;;;;;;6.22;4.75;;;;;;;;;;5061102;28;20028;-76
2023/07/28 02:59:18;;;;;;;5.35;4.60;;;;;;;;;;5077842;28;20547;-76
2023/07/28 03:01:44;;;;;;;5.80;4.65;;;;;;;;;;5075035;28;20025;-75
2023/07/28 03:04:10;;;;;;;6.32;5.00;;;;;;;;;;5076383;28;20134;-77
2023/07/28 03:06:36;;;;;;;6.28;4.85;;;;;;;;;;5074317;28;20299;-73
2023/07/28 03:09:02;;;;;;;6.30;4.38;;;;;;;;;;5074476;28;20036;-73
2023/07/28 03:11:28;;;;;;;4.85;4.07;;;;;;;;;;5073063;28;20386;-73
2023/07/28 03:13:54;;;;;;;5.22;4.45;;;;;;;;;;5072640;28;20030;-73
2023/07/28 03:16:20;;;;;;;7.03;4.25;;;;;;;;;;5073125;28;20078;-73
2023/07/28 03:18:46;;;;;;;4.88;4.43;;;;;;;;;;5073152;28;20027;-73
2023/07/28 03:21:12;;;;;;;5.00;4.07;;;;;;;;;;5072375;28;20031;-73
2023/07/28 03:23:38;;;;;;;4.75;4.05;;;;;;;;;;5072226;28;20062;-74
2023/07/28 03:26:04;;;;;;;7.70;4.75;;;;;;;;;;5072369;28;20020;-74
2023/07/28 03:28:30;;;;;;;8.43;5.13;;;;;;;;;;5072616;28;20036;-73
2023/07/28 03:30:56;;;;;;;5.00;4.20;;;;;;;;;;5072117;28;20111;-72
2023/07/28 03:33:22;;;;;;;6.53;4.82;;;;;;;;;;5072020;28;20047;-72
2023/07/28 03:35:48;;;;;;;7.68;5.47;;;;;;;;;;5071999;28;20025;-72
2023/07/28 03:38:14;;;;;;;7.20;4.70;;;;;;;;;;5072032;28;20024;-73
2023/07/28 03:40:40;;;;;;;4.93;4.13;;;;;;;;;;5071936;28;20025;-72
2023/07/28 03:43:06;;;;;;;5.90;4.30;;;;;;;;;;5071582;28;20033;-72
2023/07/28 03:45:32;;;;;;;4.32;3.83;;;;;;;;;;5071935;28;20104;-71
2023/07/28 03:47:58;;;;;;;5.18;4.30;;;;;;;;;;5071608;28;20095;-72
2023/07/28 03:50:26;;;;;;;8.50;4.35;;;;;;;;;;5071704;28;20478;-74
2023/07/28 03:52:52;;;;;;;5.10;3.92;;;;;;;;;;5071366;28;20078;-72
2023/07/28 03:55:18;;;;;;;5.47;3.80;;;;;;;;;;5071689;28;20031;-73
2023/07/28 03:57:44;;;;;;;4.30;3.58;;;;;;;;;;5071241;28;20021;-72
2023/07/28 04:00:10;;;;;;;4.15;3.75;;;;;;;;;;5070046;28;20474;-75
2023/07/28 04:02:36;;;;;;;4.07;3.50;;;;;;;;;;5070218;28;20478;-76
2023/07/28 04:05:02;;;;;;;7.20;3.80;;;;;;;;;;5071434;28;20085;-74
2023/07/28 04:07:28;;;;;;;4.20;3.80;;;;;;;;;;5073409;28;20036;-74
2023/07/28 04:09:54;;;;;;;4.45;3.55;;;;;;;;;;5070613;28;20028;-72
2023/07/28 04:12:20;;;;;;;6.03;4.35;;;;;;;;;;5068763;28;20123;-76
2023/07/28 04:14:46;;;;;;;4.70;4.20;;;;;;;;;;5071276;28;20028;-74
2023/07/28 04:17:12;;;;;;;4.25;3.70;;;;;;;;;;5075508;28;20029;-74
2023/07/28 04:19:38;;;;;;;8.13;6.82;;;;;;;;;;5070947;28;20020;-75
2023/07/28 04:22:04;;;;;;;7.78;4.85;;;;;;;;;;5071551;28;20738;-75
2023/07/28 04:24:30;;;;;;;6.35;4.93;;;;;;;;;;5071217;28;20058;-74
2023/07/28 04:26:56;;;;;;;5.55;4.57;;;;;;;;;;5069290;28;20024;-75
2023/07/28 04:29:22;;;;;;;4.82;4.20;;;;;;;;;;5071019;28;20033;-74
2023/07/28 04:31:48;;;;;;;6.32;5.18;;;;;;;;;;5070543;28;20017;-74
2023/07/28 04:34:14;;;;;;;6.55;4.20;;;;;;;;;;5069691;28;20055;-73
2023/07/28 04:36:40;;;;;;;5.22;4.25;;;;;;;;;;5070879;28;20016;-73
2023/07/28 04:39:06;;;;;;;4.90;4.15;;;;;;;;;;5071064;28;20401;-73
2023/07/28 04:41:32;;;;;;;9.85;5.35;;;;;;;;;;5070727;28;20085;-74
2023/07/28 04:43:58;;;;;;;5.93;4.72;;;;;;;;;;5069567;28;20029;-75
2023/07/28 04:46:24;;;;;;;6.43;4.40;;;;;;;;;;5070990;28;20024;-74
2023/07/28 04:48:50;;;;;;;8.68;5.57;;;;;;;;;;5071242;28;20401;-74
2023/07/28 04:51:16;;;;;;;9.65;8.05;;;;;;;;;;5071211;28;20106;-72
2023/07/28 04:53:42;;;;;;;7.03;5.53;;;;;;;;;;5070585;28;20174;-72
2023/07/28 04:56:08;;;;;;;7.35;5.25;;;;;;;;;;5071120;28;20541;-72
2023/07/28 04:58:34;;;;;;;7.47;5.18;;;;;;;;;;5071096;28;20129;-72
2023/07/28 05:01:01;;;;;;;7.72;4.93;;;;;;;;;;5070892;28;20151;-73
2023/07/28 05:03:27;;;;;;;5.03;4.40;;;;;;;;;;5070751;28;20021;-72
2023/07/28 05:05:53;;;;;;;5.60;4.72;;;;;;;;;;5071161;28;20363;-72
2023/07/28 05:08:19;;;;;;;5.22;4.30;;;;;;;;;;5071108;28;20025;-72
2023/07/28 05:10:45;;;;;;;6.40;5.20;;;;;;;;;;5074414;28;20033;-72
2023/07/28 05:13:11;;;;;;;6.25;4.30;;;;;;;;;;5074664;28;20017;-73
2023/07/28 05:15:37;;;;;;;4.43;4.03;;;;;;;;;;5075213;28;20024;-73
2023/07/28 05:18:03;;;;;;;5.47;4.50;;;;;;;;;;5074615;28;20104;-72
2023/07/28 05:20:29;;;;;;;9.23;4.85;;;;;;;;;;5075112;28;20553;-73
2023/07/28 05:22:55;;;;;;;5.47;4.60;;;;;;;;;;5076217;28;20056;-72
2023/07/28 05:25:22;;;;;;;4.63;4.05;;;;;;;;;;5075110;28;20094;-73
2023/07/28 05:27:48;;;;;;;6.95;4.47;;;;;;;;;;5075791;28;20028;-73
2023/07/28 05:30:14;;;;;;;5.07;3.78;;;;;;;;;;5076677;28;20493;-73
2023/07/28 05:32:40;;;;;;;5.50;4.90;;;;;;;;;;5075123;28;20021;-73
2023/07/28 05:35:06;;;;;;;5.35;3.70;;;;;;;;;;5075464;28;20028;-71
2023/07/28 05:37:32;;;;;;;5.20;4.15;;;;;;;;;;5075581;28;20032;-73
2023/07/28 05:39:58;;;;;;;6.47;3.92;;;;;;;;;;5074963;28;20359;-73
2023/07/28 05:42:25;;;;;;;4.45;4.05;;;;;;;;;;5078984;28;20089;-72
2023/07/28 05:44:52;;;;;;;5.35;4.53;;;;;;;;;;5076717;28;20036;-74
2023/07/28 05:47:18;;;;;;;5.35;4.22;;;;;;;;;;5076032;28;20029;-73
2023/07/28 05:49:45;;;;;;;7.20;5.45;;;;;;;;;;5076191;28;20028;-73
2023/07/28 05:52:11;;;;;;;6.68;5.13;;;;;;;;;;5078771;28;20020;-73
2023/07/28 05:54:37;;;;;;;7.63;4.13;;;;;;;;;;5075641;28;20025;-73
2023/07/28 05:57:03;;;;;;;4.35;3.53;;;;;;;;;;5075150;28;20028;-73
2023/07/28 05:59:29;;;;;;;5.68;4.13;;;;;;;;;;5075495;28;20028;-73
2023/07/28 06:01:55;;;;;;;4.95;4.05;;;;;;;;;;5075713;28;20498;-72
2023/07/28 06:04:21;;;;;;;5.40;4.07;;;;;;;;;;5076073;28;20016;-72
2023/07/28 06:06:47;;;;;;;5.85;4.18;;;;;;;;;;5074436;28;20166;-73
2023/07/28 06:09:14;;;;;;;5.57;4.55;;;;;;;;;;5074480;28;20131;-73
2023/07/28 06:11:40;;;;;;;5.28;4.63;;;;;;;;;;5074108;28;20016;-73
2023/07/28 06:14:06;;;;;;;5.40;4.15;;;;;;;;;;5075443;28;20546;-73
2023/07/28 06:16:32;;;;;;;6.65;4.70;;;;;;;;;;5077199;28;20021;-72
2023/07/28 06:18:58;;;;;;;4.57;3.80;;;;;;;;;;5073287;28;20100;-72
2023/07/28 06:21:24;;;;;;;5.05;4.15;;;;;;;;;;5075872;28;20052;-72
2023/07/28 06:23:50;;;;;;;4.50;4.00;;;;;;;;;;5073918;28;20521;-73
2023/07/28 06:26:16;;;;;;;6.60;3.95;;;;;;;;;;5074165;28;20028;-72
2023/07/28 06:28:42;;;;;;;9.40;5.18;;;;;;;;;;5074986;28;20031;-72
2023/07/28 06:31:09;;;;;;;4.70;3.92;;;;;;;;;;5073842;28;20083;-73
2023/07/28 06:33:36;;;;;;;4.97;3.92;;;;;;;;;;5073047;28;20044;-72
2023/07/28 06:36:02;;;;;;;6.55;3.88;;;;;;;;;;5073395;28;20016;-72
2023/07/28 06:38:28;;;;;;;5.05;3.97;;;;;;;;;;5072936;28;20490;-73
2023/07/28 06:40:55;;;;;;;4.72;3.90;;;;;;;;;;5073237;28;20051;-73
2023/07/28 06:43:21;;;;;;;5.35;4.40;;;;;;;;;;5072992;28;20028;-72
2023/07/28 06:45:47;;;;;;;5.88;4.00;;;;;;;;;;5073293;28;20062;-72
2023/07/28 06:48:13;;;;;;;6.88;4.82;;;;;;;;;;5072754;28;20409;-73
2023/07/28 06:50:39;;;;;;;5.25;4.35;;;;;;;;;;5073675;28;20086;-72
2023/07/28 06:53:05;;;;;;;6.50;5.30;;;;;;;;;;5072334;28;20033;-72
2023/07/28 06:55:31;;;;;;;6.25;4.60;;;;;;;;;;5070636;28;20035;-71
2023/07/28 06:57:57;;;;;;;7.63;5.57;;;;;;;;;;5071685;28;20021;-71
2023/07/28 07:00:23;;;;;;;6.18;4.65;;;;;;;;;;5071573;28;20526;-73
2023/07/28 07:02:49;;;;;;;6.15;4.65;;;;;;;;;;5071241;28;20127;-71
2023/07/28 07:05:15;;;;;;;5.53;4.10;;;;;;;;;;5072178;28;20108;-71
2023/07/28 07:07:41;;;;;;;6.07;3.72;;;;;;;;;;5070769;28;20031;-73
2023/07/28 07:10:07;;;;;;;3.85;3.17;;;;;;;;;;5071422;28;20017;-72
2023/07/28 07:12:33;;;;;;;8.68;3.72;;;;;;;;;;5070904;28;20025;-73
2023/07/28 07:14:59;;;;;;;3.08;2.75;;;;;;;;;;5071732;28;20319;-73
2023/07/28 07:17:25;;;;;;;2.88;2.33;;;;;;;;;;5071537;28;20031;-74
2023/07/28 07:19:51;;;;;;;2.47;2.28;;;;;;;;;;5071509;28;20486;-73
2023/07/28 07:22:17;;;;;;;3.63;3.20;;;;;;;;;;5070863;28;20024;-72
2023/07/28 07:24:43;;;;;;;6.20;2.95;;;;;;;;;;5071441;28;20024;-72
2023/07/28 07:27:12;;;;;;;4.90;3.75;;;;;;;;;;5071185;28;20059;-73
2023/07/28 07:29:39;;;;;;;5.28;4.13;;;;;;;;;;5072732;28;20028;-73
2023/07/28 07:32:06;;;;;;;5.18;4.28;;;;;;;;;;5068955;28;20512;-74
2023/07/28 07:34:32;;;;;;;7.65;4.55;;;;;;;;;;5071213;28;20452;-72
2023/07/28 07:36:58;;;;;;;6.35;5.30;;;;;;;;;;5070903;28;20044;-72
2023/07/28 07:39:24;;;;;;;6.25;5.20;;;;;;;;;;5071111;28;20031;-73
2023/07/28 07:41:50;;;;;;;6.30;4.22;;;;;;;;;;5070245;28;20033;-73
2023/07/28 07:44:16;;;;;;;5.82;4.50;;;;;;;;;;5070873;28;20024;-73
2023/07/28 07:46:42;;;;;;;6.18;4.80;;;;;;;;;;5071048;28;20031;-73
2023/07/28 07:49:08;;;;;;;5.78;4.55;;;;;;;;;;5069407;28;20029;-72
2023/07/28 07:51:34;;;;;;;5.85;4.22;;;;;;;;;;5071228;28;20021;-70
2023/07/28 07:54:03;;;;;;;6.10;4.45;;;;;;;;;;5070073;28;20135;-72
2023/07/28 07:56:29;;;;;;;5.85;4.53;;;;;;;;;;5070957;28;20041;-72
2023/07/28 07:58:56;;;;;;;4.43;3.92;;;;;;;;;;5073705;28;20029;-75
2023/07/28 08:01:23;;;;;;;6.47;4.30;;;;;;;;;;5077003;28;20060;-73
2023/07/28 08:03:48;;;;;;;5.97;4.25;;;;;;;;;;5072924;28;20024;-73
2023/07/28 08:06:15;;;;;;;8.95;4.93;;;;;;;;;;5072112;28;20177;-73
2023/07/28 08:08:41;;;;;;;5.97;4.40;;;;;;;;;;5071600;28;20526;-72
2023/07/28 08:11:07;;;;;;;6.18;3.88;;;;;;;;;;5071807;28;20029;-71
2023/07/28 08:13:33;;;;;;;5.63;3.70;;;;;;;;;;5072744;28;20070;-71
2023/07/28 08:15:59;;;;;;;5.93;3.70;;;;;;;;;;5073237;28;20027;-73
2023/07/28 08:18:25;;;;;;;4.90;3.50;;;;;;;;;;5072236;28;20441;-72
2023/07/28 08:20:51;;;;;;;6.32;4.35;;;;;;;;;;5073198;28;20025;-76
2023/07/28 08:23:17;;;;;;;6.05;4.05;;;;;;;;;;5071151;28;20070;-73
2023/07/28 08:25:43;;;;;;;7.93;3.75;;;;;;;;;;5071559;28;20496;-73
2023/07/28 08:28:09;;;;;;;6.03;3.33;;;;;;;;;;5069440;28;20043;-72
2023/07/28 08:30:35;;;;;;;4.32;3.15;;;;;;;;;;5089838;28;20039;-73
2023/07/28 08:33:03;;;;;;;4.25;2.83;;;;;;;;;;5092246;28;20550;-73
2023/07/28 08:35:29;;;;;;;3.70;2.88;;;;;;;;;;5052997;28;20056;-73
2023/07/28 08:37:55;;;;;;;2.70;2.47;;;;;;;;;;5068441;28;20083;-71
2023/07/28 08:40:21;;;;;;;4.70;3.15;;;;;;;;;;5086919;28;20029;-73
2023/07/28 08:42:49;;;;;;;18.02;12.15;;;;;;;;;;5073123;28;20054;-72
2023/07/28 08:45:15;;;;;;;7.63;4.75;;;;;;;;;;5091493;28;20083;-71
2023/07/28 08:47:41;;;;;;;5.03;3.35;;;;;;;;;;5076679;28;20362;-72
2023/07/28 08:50:07;;;;;;;5.70;3.30;;;;;;;;;;5073334;28;20028;-74
2023/07/28 08:52:33;;;;;;;4.28;3.10;;;;;;;;;;5072634;28;20455;-70
2023/07/28 08:54:59;;;;;;;6.15;3.00;;;;;;;;;;5075129;28;20017;-71
2023/07/28 08:57:25;;;;;;;6.65;3.40;;;;;;;;;;5075382;28;20044;-72
2023/07/28 08:59:53;;;;;;;8.98;3.40;;;;;;;;;;5075020;28;20503;-71
2023/07/28 09:02:20;;;;;;;4.72;3.05;;;;;;;;;;5074267;28;20079;-73
2023/07/28 09:04:46;;;;;;;4.20;2.50;;;;;;;;;;5075038;28;20029;-74
2023/07/28 09:07:12;;;;;;;3.08;2.55;;;;;;;;;;5074677;28;20103;-74
2023/07/28 09:09:38;;;;;;;3.53;2.67;;;;;;;;;;5074887;28;20025;-73
2023/07/28 09:12:05;;;;;;;6.20;2.80;;;;;;;;;;5074527;28;20581;-71
2023/07/28 09:14:31;;;;;;;5.03;3.30;;;;;;;;;;5074873;28;20052;-72
2023/07/28 09:17:06;;;;;;;3.63;2.70;;;;;;;;;;5075936;28;20028;-72
2023/07/28 09:19:32;;;;;;;5.15;2.40;;;;;;;;;;5077610;28;20043;-72
2023/07/28 09:21:59;;;;;;;3.47;2.80;;;;;;;;;;5076673;28;20522;-72
2023/07/28 09:24:32;;;;;;;4.03;2.85;;;;;;;;;;5074921;28;20032;-73
2023/07/28 09:26:58;;;;;;;4.22;2.70;;;;;;;;;;5074679;28;20062;-72
2023/07/28 09:29:24;;;;;;;2.88;2.30;;;;;;;;;;5074724;28;20028;-72
2023/07/28 09:31:51;;;;;;;5.05;2.10;;;;;;;;;;5074482;28;20028;-73
2023/07/28 09:34:26;;;;;;;3.03;2.15;;;;;;;;;;5074647;28;20440;-73
2023/07/28 09:36:53;;;;;;;2.78;2.00;;;;;;;;;;5074916;28;20387;-72
2023/07/28 09:39:20;;;;;;;3.17;2.08;;;;;;;;;;5074685;28;20031;-73
2023/07/28 09:41:47;;;;;;;3.15;1.85;;;;;;;;;;5074280;28;20706;-73
2023/07/28 09:44:13;;;;;;;3.65;2.33;;;;;;;;;;5074912;28;20486;-73
2023/07/28 09:46:48;;;;;;;3.80;1.92;;;;;;;;;;5075204;28;20039;-73
2023/07/28 09:49:16;;;;;;;2.20;1.83;;;;;;;;;;5073896;28;20120;-72
2023/07/28 09:51:44;;;;;;;2.40;2.20;;;;;;;;;;5074624;28;20434;-72
2023/07/28 09:54:27;;;;;;;2.58;2.10;;;;;;;;;;5074229;28;20029;-74
2023/07/28 09:56:56;;;;;;;2.10;1.73;;;;;;;;;;5074023;28;20024;-71
2023/07/28 09:59:24;;;;;;;3.20;2.30;;;;;;;;;;5074381;28;20017;-73
2023/07/28 10:01:51;;;;;;;5.03;2.83;;;;;;;;;;5077126;28;20020;-74
2023/07/28 10:04:17;;;;;;;4.15;1.83;;;;;;;;;;5073568;28;20086;-74
2023/07/28 10:06:43;;;;;;;2.40;1.80;;;;;;;;;;5073803;28;20020;-72
2023/07/28 10:09:09;;;;;;;3.15;2.20;;;;;;;;;;5073766;28;20028;-75
2023/07/28 10:11:35;;;;;;;1.95;1.70;;;;;;;;;;5073764;28;20371;-71
2023/07/28 10:14:01;;;;;;;3.10;2.15;;;;;;;;;;5074575;28;20032;-71
2023/07/28 10:16:31;;;;;;;5.35;2.15;;;;;;;;;;5073382;28;20031;-72
2023/07/28 10:18:59;;;;;;;3.90;2.10;;;;;;;;;;5073528;28;20017;-72
2023/07/28 10:21:29;;;;;;;2.88;2.00;;;;;;;;;;5074102;28;20024;-72
2023/07/28 10:23:56;;;;;;;4.07;2.60;;;;;;;;;;5073619;28;20024;-72
2023/07/28 10:26:32;;;;;;;22.08;15.32;;;;;;;;;;5073414;28;20103;-73
2023/07/28 10:29:08;;;;;;;2.67;2.08;;;;;;;;;;5073684;28;20052;-72
2023/07/28 10:31:34;;;;;;;2.25;1.98;;;;;;;;;;5073644;28;20048;-72
2023/07/28 10:34:00;;;;;;;3.97;2.00;;;;;;;;;;5073169;28;20118;-71
2023/07/28 10:36:26;;;;;;;2.08;1.88;;;;;;;;;;5073332;28;20027;-72
2023/07/28 10:39:12;;;;;;;5.35;2.63;;;;;;;;;;5073305;28;20107;-73
2023/07/28 10:41:38;;;;;;;6.70;2.55;;;;;;;;;;5073616;28;20039;-73
2023/07/28 10:44:05;;;;;;;5.50;2.60;;;;;;;;;;5073166;28;20032;-72
2023/07/28 10:46:32;;;;;;;4.32;2.20;;;;;;;;;;5072438;28;20021;-72
2023/07/28 10:49:04;;;;;;;2.60;2.20;;;;;;;;;;5073703;28;20016;-72
2023/07/28 10:51:33;;;;;;;2.50;2.30;;;;;;;;;;5073005;28;20020;-72
2023/07/28 10:53:59;;;;;;;3.85;2.60;;;;;;;;;;5072791;28;20433;-73
2023/07/28 10:56:26;;;;;;;3.08;2.20;;;;;;;;;;5073072;28;20028;-72
2023/07/28 10:58:57;;;;;;;4.43;3.20;;;;;;;;;;5072844;28;20115;-72
2023/07/28 11:01:25;;;;;;;4.45;3.42;;;;;;;;;;5072803;28;20096;-71
2023/07/28 11:03:51;;;;;;;3.80;2.63;;;;;;;;;;5072289;28;20297;-73
2023/07/28 11:06:17;;;;;;;6.97;3.17;;;;;;;;;;5072060;28;20104;-72
2023/07/28 11:08:43;;;;;;;5.78;2.67;;;;;;;;;;5072445;28;20125;-72
2023/07/28 11:11:10;;;;;;;6.53;3.22;;;;;;;;;;5072804;28;20089;-72
2023/07/28 11:13:36;;;;;;;5.47;2.75;;;;;;;;;;5072584;28;20048;-74
2023/07/28 11:16:04;;;;;;;4.70;2.60;;;;;;;;;;5072719;28;20056;-72
2023/07/28 11:18:30;;;;;;;5.07;2.97;;;;;;;;;;5072471;28;20502;-71
2023/07/28 11:20:56;;;;;;;7.05;3.50;;;;;;;;;;5072959;28;20033;-72
2023/07/28 11:23:23;;;;;;;5.43;3.72;;;;;;;;;;5072556;28;20490;-77
2023/07/28 11:25:50;;;;;;;2.95;2.42;;;;;;;;;;5073951;28;20028;-72
2023/07/28 11:28:16;;;;;;;3.90;2.88;;;;;;;;;;5073987;28;20033;-74
2023/07/28 11:30:43;;;;;;;3.85;2.50;;;;;;;;;;5072455;28;20020;-75
2023/07/28 11:33:11;;;;;;;2.88;2.20;;;;;;;;;;5072071;28;21104;-72
2023/07/28 11:35:39;;;;;;;8.35;4.22;;;;;;;;;;5073158;28;20016;-72
2023/07/28 11:38:05;;;;;;;12.30;6.65;;;;;;;;;;5074235;28;20081;-73
2023/07/28 11:40:31;;;;;;;6.80;5.10;;;;;;;;;;5072468;28;20073;-73
2023/07/28 11:42:57;;;;;;;3.42;2.80;;;;;;;;;;5072126;28;20533;-73
2023/07/28 11:45:23;;;;;;;5.45;2.40;;;;;;;;;;5072160;28;20067;-72
2023/07/28 11:47:58;;;;;;;3.47;2.10;;;;;;;;;;5073094;28;20056;-74
2023/07/28 11:50:28;;;;;;;2.88;2.17;;;;;;;;;;5073330;28;20105;-73
2023/07/28 11:52:56;;;;;;;2.92;2.00;;;;;;;;;;5071668;28;20073;-73
2023/07/28 11:55:22;;;;;;;3.28;2.88;;;;;;;;;;5072018;28;20013;-73
2023/07/28 11:57:48;;;;;;;2.67;2.05;;;;;;;;;;5071812;28;20020;-73
2023/07/28 12:00:16;;;;;;;2.50;2.20;;;;;;;;;;5075989;28;20055;-73
2023/07/28 12:02:43;;;;;;;3.63;2.42;;;;;;;;;;5072934;28;20077;-73
2023/07/28 12:05:13;;;;;;;3.08;2.40;;;;;;;;;;5068961;28;20354;-74
2023/07/28 12:07:39;;;;;;;5.07;2.97;;;;;;;;;;5051727;28;20040;-73
2023/07/28 12:10:08;;;;;;;2.83;2.33;;;;;;;;;;5053568;28;20165;-72
2023/07/28 12:12:40;;;;;;;2.88;2.28;;;;;;;;;;5053054;28;20392;-72
2023/07/28 12:15:20;;;;;;;2.05;1.88;;;;;;;;;;5052038;28;20032;-73
2023/07/28 12:18:05;;;;;;;4.45;2.47;;;;;;;;;;5053406;28;20508;-72
2023/07/28 12:20:35;;;;;;;3.53;2.40;;;;;;;;;;5052938;28;20375;-73
2023/07/28 12:23:01;;;;;;;3.58;2.25;;;;;;;;;;5062944;28;20618;-73
2023/07/28 12:25:27;;;;;;;3.00;2.20;;;;;;;;;;5071593;28;20134;-75
2023/07/28 12:27:53;;;;;;;2.58;2.03;;;;;;;;;;5071589;28;20032;-73
2023/07/28 12:30:19;;;;;;;2.65;1.80;;;;;;;;;;5070340;28;20031;-74
2023/07/28 12:32:46;;;;;;;2.92;1.40;;;;;;;;;;5051205;28;20025;-74
2023/07/28 12:35:12;;;;;;;1.33;1.23;;;;;;;;;;5053058;28;20021;-73
2023/07/28 12:37:38;;;;;;;1.63;1.30;;;;;;;;;;5052186;28;20040;-74
2023/07/28 12:40:05;;;;;;;2.05;1.63;;;;;;;;;;5054474;28;20025;-75
2023/07/28 12:42:31;;;;;;;3.03;2.72;;;;;;;;;;5055077;28;20028;-72
2023/07/28 12:44:58;;;;;;;6.95;4.60;;;;;;;;;;5061096;28;20039;-72
2023/07/28 12:47:24;;;;;;;2.35;1.73;;;;;;;;;;5070096;28;20031;-72
2023/07/28 12:49:50;;;;;;;3.45;2.13;;;;;;;;;;5071680;28;20062;-73
2023/07/28 12:52:16;;;;;;;7.18;3.83;;;;;;;;;;5070950;28;20155;-75
2023/07/28 12:54:45;;;;;;;3.17;2.45;;;;;;;;;;5075826;28;20470;-74
2023/07/28 12:57:12;;;;;;;4.15;1.77;;;;;;;;;;5067793;28;20024;-72
2023/07/28 12:59:38;;;;;;;3.30;1.35;;;;;;;;;;5069889;28;20017;-74
2023/07/28 13:02:04;;;;;;;1.30;1.17;;;;;;;;;;5072232;28;20024;-73
2023/07/28 13:04:30;;;;;;;1.50;1.20;;;;;;;;;;5070170;28;20025;-72
2023/07/28 13:06:56;;;;;;;0.90;0.90;;;;;;;;;;5071227;28;20032;-72
2023/07/28 13:09:23;;;;;;;2.55;1.30;;;;;;;;;;5073218;28;20028;-76
2023/07/28 13:11:49;;;;;;;1.95;1.25;;;;;;;;;;5072144;28;20029;-72
2023/07/28 13:14:15;;;;;;;2.72;1.50;;;;;;;;;;5071310;28;20579;-73
2023/07/28 13:16:41;;;;;;;2.78;1.63;;;;;;;;;;5073325;28;20486;-73
2023/07/28 13:19:07;;;;;;;1.10;0.93;;;;;;;;;;5072920;28;20055;-74
2023/07/28 13:21:33;;;;;;;1.40;1.27;;;;;;;;;;5070953;28;20039;-74
2023/07/28 13:23:59;;;;;;;2.00;1.25;;;;;;;;;;5071036;28;20096;-74
2023/07/28 13:26:25;;;;;;;1.27;1.17;;;;;;;;;;5072996;28;20115;-73
2023/07/28 13:28:52;;;;;;;1.23;0.93;;;;;;;;;;5071243;28;20419;-74
2023/07/28 13:31:18;;;;;;;5.70;1.30;;;;;;;;;;5075132;28;20187;-72
2023/07/28 13:33:44;;;;;;;1.90;1.23;;;;;;;;;;5074970;28;20039;-74
2023/07/28 13:36:10;;;;;;;4.30;2.70;;;;;;;;;;5075632;28;20025;-73
2023/07/28 13:38:36;;;;;;;2.80;1.38;;;;;;;;;;5060269;28;20344;-74
2023/07/28 13:41:05;;;;;;;2.65;1.10;;;;;;;;;;5075817;28;20115;-73
2023/07/28 13:43:31;;;;;;;2.40;1.20;;;;;;;;;;5080285;28;20024;-73
2023/07/28 13:45:57;;;;;;;1.60;1.08;;;;;;;;;;5076234;28;20024;-72
2023/07/28 13:48:24;;;;;;;1.20;0.90;;;;;;;;;;5075456;28;20085;-73
2023/07/28 13:50:50;;;;;;;2.08;0.90;;;;;;;;;;5075615;28;20023;-73
2023/07/28 13:53:16;;;;;;;1.15;1.00;;;;;;;;;;5074540;28;20413;-73
2023/07/28 13:55:42;;;;;;;1.20;1.10;;;;;;;;;;5073638;28;20116;-73
2023/07/28 13:58:08;;;;;;;2.08;1.08;;;;;;;;;;5080171;28;20064;-74
2023/07/28 14:00:34;;;;;;;1.23;0.95;;;;;;;;;;5074290;28;20553;-72
2023/07/28 14:03:00;;;;;;;1.48;1.13;;;;;;;;;;5074250;28;20033;-73
2023/07/28 14:05:26;;;;;;;2.97;1.75;;;;;;;;;;5075572;28;20048;-74
2023/07/28 14:07:52;;;;;;;3.33;1.10;;;;;;;;;;5074136;28;20021;-73
2023/07/28 14:10:18;;;;;;;1.35;1.02;;;;;;;;;;5071519;28;20025;-73
2023/07/28 14:12:43;;;;;;;1.90;1.02;;;;;;;;;;5073392;28;20032;-72
2023/07/28 14:15:10;;;;;;;2.08;1.10;;;;;;;;;;5073420;28;20073;-72
2023/07/28 14:17:36;;;;;;;2.45;1.35;;;;;;;;;;5072218;28;20084;-73
2023/07/28 14:20:02;;;;;;;2.78;1.25;;;;;;;;;;5073415;28;20112;-73
2023/07/28 14:22:28;;;;;;;3.88;1.50;;;;;;;;;;5072834;28;20020;-73
2023/07/28 14:24:54;;;;;;;1.63;1.20;;;;;;;;;;5073434;28;20038;-72
2023/07/28 14:27:20;;;;;;;1.95;0.98;;;;;;;;;;5073183;28;20402;-73
2023/07/28 14:29:46;;;;;;;2.15;1.30;;;;;;;;;;5073573;28;20553;-72
2023/07/28 14:32:12;;;;;;;6.00;1.58;;;;;;;;;;5073142;28;20052;-71
2023/07/28 14:34:38;;;;;;;2.15;1.33;;;;;;;;;;5073554;28;20017;-73
2023/07/28 14:37:08;;;;;;;3.45;1.23;;;;;;;;;;5073325;28;20021;-72
2023/07/28 14:39:33;;;;;;;2.10;1.10;;;;;;;;;;5073355;28;20028;-72